Time;durP1;ratioP1;P1;durP2;ratioP2;P2;SDS_P1;SDS_P2;PMS_P1;PMS_P2;Temp;Humidity;BMP_temperature;BMP_pressure;BME280_temperature;BME280_humidity;BME280_pressure;Samples;Min_cycle;Max_cycle;Signal;HPM_P1;HPM_P2
2022/01/19 00:01:32;;;;;;;3.97;2.45;;;;;;;-7.05;73.73;99454.44;4750370;29;20511;-73
2022/01/19 00:03:56;;;;;;;3.55;2.42;;;;;;;-7.00;74.29;99455.25;4751076;29;20096;-73
2022/01/19 00:06:22;;;;;;;4.53;2.75;;;;;;;-6.99;74.30;99453.53;4749319;30;20051;-73
2022/01/19 00:08:47;;;;;;;4.88;3.28;;;;;;;-7.02;73.54;99451.84;4751214;29;20051;-74
2022/01/19 00:11:13;;;;;;;10.93;3.40;;;;;;;-6.93;74.67;99452.66;4749458;30;20047;-73
2022/01/19 00:13:39;;;;;;;5.63;2.80;;;;;;;-6.97;73.94;99447.47;4764938;29;20108;-72
2022/01/19 00:16:06;;;;;;;3.30;2.70;;;;;;;-6.91;74.40;99437.97;4737931;30;20066;-71
2022/01/19 00:18:34;;;;;;;4.78;2.50;;;;;;;-7.01;73.79;99445.78;4737489;30;20039;-72
2022/01/19 00:20:59;;;;;;;5.10;2.88;;;;;;;-6.96;73.89;99433.66;4752108;30;20043;-73
2022/01/19 00:23:24;;;;;;;3.55;2.60;;;;;;;-7.04;72.58;99435.44;4736864;30;20059;-72
2022/01/19 00:25:52;;;;;;;3.33;2.22;;;;;;;-6.85;75.57;99437.94;4752507;30;20075;-73
2022/01/19 00:28:17;;;;;;;6.43;3.25;;;;;;;-6.97;73.56;99423.31;4755048;29;20051;-72
2022/01/19 00:30:42;;;;;;;6.55;2.38;;;;;;;-6.85;74.82;99430.16;4753776;30;20047;-73
2022/01/19 00:33:08;;;;;;;8.00;2.83;;;;;;;-6.88;73.86;99435.38;4754643;30;20095;-76
2022/01/19 00:35:35;;;;;;;3.42;2.80;;;;;;;-6.81;75.24;99440.50;4739102;30;20039;-74
2022/01/19 00:37:59;;;;;;;10.45;2.05;;;;;;;-6.74;75.85;99433.56;4755480;29;20057;-74
2022/01/19 00:40:24;;;;;;;5.88;2.63;;;;;;;-6.79;73.33;99424.97;4738674;30;20051;-71
2022/01/19 00:42:49;;;;;;;4.78;2.72;;;;;;;-6.93;71.59;99431.94;4722945;30;20054;-74
2022/01/19 00:45:18;;;;;;;3.75;2.63;;;;;;;-6.87;72.10;99430.16;4738610;30;20043;-74
2022/01/19 00:47:47;;;;;;;4.20;2.85;;;;;;;-6.76;73.42;99430.09;4754807;30;20055;-75
2022/01/19 00:50:16;;;;;;;4.82;2.60;;;;;;;-6.73;72.89;99433.53;4753622;30;20051;-71
2022/01/19 00:52:43;;;;;;;4.30;2.47;;;;;;;-6.70;73.44;99437.84;4738889;30;20058;-76
2022/01/19 00:55:11;;;;;;;7.07;2.95;;;;;;;-6.69;73.77;99439.59;4754091;29;20066;-71
2022/01/19 00:57:38;;;;;;;5.47;2.78;;;;;;;-6.60;75.27;99439.53;4738534;30;20153;-75
2022/01/19 01:00:09;;;;;;;3.08;2.22;;;;;;;-6.59;74.92;99430.88;4754106;30;20525;-76
2022/01/19 01:02:34;;;;;;;4.38;2.45;;;;;;;-6.70;72.72;99430.09;4754613;30;20130;-79
2022/01/19 01:04:59;;;;;;;4.03;2.72;;;;;;;-6.66;73.87;99437.81;4741141;30;20075;-80
2022/01/19 01:07:24;;;;;;;6.32;3.13;;;;;;;-6.58;74.57;99421.38;4754024;30;20055;-74
2022/01/19 01:09:48;;;;;;;5.15;3.10;;;;;;;-6.70;71.68;99419.72;4753490;30;20043;-74
2022/01/19 01:12:19;;;;;;;5.68;2.97;;;;;;;-6.54;75.54;99436.00;4753522;30;20134;-79
2022/01/19 01:20:12;;;;;;;3.75;2.47;;;;;;;-6.54;74.52;99431.69;4754815;30;20062;-74
2022/01/19 01:22:38;;;;;;;4.03;2.70;;;;;;;-6.57;73.20;99423.97;4754491;30;20063;-73
2022/01/19 01:25:05;;;;;;;3.40;2.40;;;;;;;-6.59;73.37;99438.66;4737769;30;20081;-72
2022/01/19 01:27:29;;;;;;;5.63;3.08;;;;;;;-6.58;75.46;99437.78;4754122;30;20156;-78
2022/01/19 01:29:55;;;;;;;6.13;3.03;;;;;;;-6.58;74.76;99430.00;4739943;30;20063;-73
2022/01/19 01:32:20;;;;;;;4.35;2.58;;;;;;;-6.56;75.17;99430.88;4752947;30;20545;-73
2022/01/19 01:34:45;;;;;;;4.20;2.33;;;;;;;-6.55;75.02;99414.44;4754253;29;20399;-73
2022/01/19 01:37:10;;;;;;;5.40;2.92;;;;;;;-6.74;72.55;99418.84;4753079;30;20055;-75
2022/01/19 01:39:35;;;;;;;5.53;3.30;;;;;;;-7.01;70.51;99431.97;4754263;29;20053;-70
2022/01/19 01:42:00;;;;;;;5.45;2.97;;;;;;;-6.87;71.18;99437.06;4752348;30;20124;-72
2022/01/19 01:44:35;;;;;;;6.70;2.70;;;;;;;-6.80;71.97;99428.41;4768503;29;20055;-75
2022/01/19 01:47:01;;;;;;;5.60;3.25;;;;;;;-6.97;70.55;99431.94;4738195;30;20116;-73
2022/01/19 01:49:44;;;;;;;5.75;3.00;;;;;;;-6.97;70.76;99433.66;4738567;30;20047;-76
2022/01/19 01:54:57;;;;;;;3.03;1.88;;;;;;;-6.86;70.63;99437.06;4740991;30;20138;-80
2022/01/19 01:57:21;;;;;;;5.13;2.65;;;;;;;-6.89;70.97;99429.34;4738769;30;20146;-73
2022/01/19 01:59:48;;;;;;;4.85;2.70;;;;;;;-6.80;72.65;99415.47;4737159;30;20047;-70
2022/01/19 02:02:16;;;;;;;4.93;3.17;;;;;;;-6.80;73.02;99418.91;4752910;30;20156;-74
2022/01/19 02:04:41;;;;;;;2.78;1.75;;;;;;;-6.86;71.24;99423.25;4753271;29;20051;-65
2022/01/19 02:09:54;;;;;;;;;;;;;;;-6.81;70.02;99431.88;4752030;30;20074;-65
2022/01/19 02:23:26;;;;;;;3.22;2.55;;;;;;;-7.00;72.24;99439.72;4752117;30;20055;-68
2022/01/19 02:25:54;;;;;;;2.47;2.00;;;;;;;-6.99;72.48;99444.03;4767542;29;20111;-68
2022/01/19 02:36:51;;;;;;;3.83;2.28;;;;;;;-7.11;72.24;99459.63;4751743;29;20050;-71
2022/01/19 02:42:04;;;;;;;3.38;1.95;;;;;;;-6.99;73.63;99466.50;4739345;30;20098;-71
2022/01/19 02:46:35;;;;;;;2.67;1.48;;;;;;;-6.97;73.98;99451.81;4757537;30;20499;-71
2022/01/19 02:49:51;;;;;;;6.35;2.45;;;;;;;-6.99;73.39;99466.50;4754128;30;20051;-71
2022/01/19 02:52:18;;;;;;;2.38;1.98;;;;;;;-6.97;73.85;99464.75;4750822;30;20051;-66
2022/01/19 02:54:43;;;;;;;3.28;2.67;;;;;;;-6.98;72.57;99473.41;4751875;29;20043;-71
2022/01/19 02:57:14;;;;;;;3.50;2.28;;;;;;;-6.98;72.30;99471.66;4751790;29;20058;-70
2022/01/19 03:10:16;;;;;;;1.93;1.43;;;;;;;-6.80;73.25;99469.88;4749895;30;20066;-71
2022/01/19 03:12:46;;;;;;;1.83;1.65;;;;;;;-6.81;74.08;99462.97;4751443;30;20304;-76
2022/01/19 03:15:13;;;;;;;4.07;2.53;;;;;;;-6.87;72.95;99466.44;4736451;30;20825;-74
2022/01/19 03:17:38;;;;;;;3.53;3.17;;;;;;;-6.92;72.30;99469.94;4736464;30;20468;-73
2022/01/19 03:20:04;;;;;;;4.53;3.30;;;;;;;-6.92;71.92;99460.44;4735542;30;20073;-70
2022/01/19 03:22:36;;;;;;;2.40;2.00;;;;;;;-6.86;73.10;99454.34;4750158;30;20518;-68
2022/01/19 03:25:03;;;;;;;3.33;2.03;;;;;;;-6.81;74.88;99453.47;4750194;30;20519;-69
2022/01/19 03:27:28;;;;;;;9.75;3.25;;;;;;;-6.86;74.12;99455.22;4750262;30;20422;-72
2022/01/19 03:29:53;;;;;;;3.58;2.20;;;;;;;-6.90;71.84;99457.84;4735429;30;20371;-69
2022/01/19 03:32:17;;;;;;;5.75;3.30;;;;;;;-7.00;70.98;99447.50;4720400;30;20067;-67
2022/01/19 03:34:43;;;;;;;9.25;3.13;;;;;;;-6.94;71.80;99453.53;4750306;30;20040;-65
2022/01/19 03:37:11;;;;;;;4.82;2.28;;;;;;;-6.94;71.87;99449.22;4735820;30;20595;-65
2022/01/19 03:39:36;;;;;;;3.47;2.38;;;;;;;-6.98;72.44;99450.06;4750550;30;20051;-66
2022/01/19 03:42:00;;;;;;;3.42;2.03;;;;;;;-6.86;74.52;99447.44;4750516;30;20066;-66
2022/01/19 03:44:26;;;;;;;2.38;2.17;;;;;;;-6.85;73.90;99445.69;4751532;29;20047;-66
2022/01/19 03:47:00;;;;;;;5.28;2.55;;;;;;;-6.87;72.77;99437.06;4750441;30;20137;-68
2022/01/19 03:49:27;;;;;;;4.43;1.98;;;;;;;-6.90;72.38;99437.09;4753551;29;20454;-66
2022/01/19 03:51:58;;;;;;;6.15;2.25;;;;;;;-6.87;72.80;99452.63;4753993;30;20047;-64
2022/01/19 03:54:24;;;;;;;5.50;2.35;;;;;;;-6.94;71.79;99451.78;4739062;30;20043;-68
2022/01/19 03:56:48;;;;;;;4.22;2.70;;;;;;;-6.96;71.41;99440.56;4754378;29;20511;-65
2022/01/19 03:59:13;;;;;;;9.52;2.92;;;;;;;-7.01;71.49;99445.78;4752697;30;20529;-64
2022/01/19 04:01:38;;;;;;;4.50;2.50;;;;;;;-7.12;70.96;99447.56;4737592;30;20531;-66
2022/01/19 04:06:57;;;;;;;6.20;2.50;;;;;;;-7.05;71.41;99467.38;4751397;30;20173;-65
2022/01/19 04:09:23;;;;;;;6.93;2.53;;;;;;;-6.98;73.04;99469.06;4751394;30;20058;-64
2022/01/19 04:11:49;;;;;;;6.72;2.38;;;;;;;-6.94;73.07;99466.47;4752380;30;20035;-65
2022/01/19 04:14:22;;;;;;;6.85;2.95;;;;;;;-7.07;71.27;99470.84;4752442;30;20054;-66
2022/01/19 04:16:58;;;;;;;4.13;2.40;;;;;;;-7.06;71.24;99473.44;4750728;30;20081;-65
2022/01/19 04:19:29;;;;;;;3.97;2.45;;;;;;;-7.13;71.47;99478.66;4751412;30;20055;-64
2022/01/19 04:22:19;;;;;;;9.32;3.28;;;;;;;-7.19;71.54;99471.75;4750567;30;20060;-65
2022/01/19 04:24:46;;;;;;;6.78;3.35;;;;;;;-7.28;71.92;99479.56;4735063;30;20154;-65
2022/01/19 04:30:10;;;;;;;4.45;2.50;;;;;;;-7.47;70.82;99478.75;4756257;30;20051;-68
2022/01/19 04:35:25;;;;;;;5.38;3.00;;;;;;;-7.52;71.58;99480.47;4754261;30;20047;-69
2022/01/19 04:46:42;;;;;;;6.78;3.30;;;;;;;-7.43;71.45;99493.38;4736387;30;20489;-67
2022/01/19 05:05:16;;;;;;;3.80;2.28;;;;;;;-7.25;71.97;99476.97;4750485;30;20600;-64
2022/01/19 11:31:27;;;;;;;6.55;3.22;;;;;;;-3.21;57.09;99223.16;4957144;24;20062;-68
2022/01/19 11:33:56;;;;;;;9.60;4.80;;;;;;;-3.23;59.37;99217.09;4769609;29;20058;-68
2022/01/19 11:36:33;;;;;;;9.98;3.97;;;;;;;-3.37;58.73;99202.63;4753315;29;20528;-69
2022/01/19 11:39:05;;;;;;;7.22;3.30;;;;;;;-3.32;61.41;99206.00;4769415;29;20057;-68
2022/01/19 11:41:54;;;;;;;6.22;3.40;;;;;;;-3.38;59.02;99213.94;4769440;29;20054;-68
2022/01/19 11:44:39;;;;;;;7.05;3.47;;;;;;;-3.38;61.39;99213.94;4769284;29;20058;-68
2022/01/19 11:47:31;;;;;;;4.85;3.17;;;;;;;-3.57;61.09;99207.44;4769461;29;20066;-67
2022/01/19 11:50:05;;;;;;;6.28;3.08;;;;;;;-3.56;61.58;99209.16;4769424;29;20078;-69
2022/01/19 11:52:37;;;;;;;6.30;3.70;;;;;;;-3.55;61.82;99205.66;4769972;29;20145;-71
2022/01/19 11:55:30;;;;;;;7.25;3.83;;;;;;;-3.60;61.43;99196.22;4770120;29;20130;-68
2022/01/19 11:58:20;;;;;;;4.63;3.10;;;;;;;-3.60;60.83;99201.41;4768234;29;20058;-68
2022/01/19 12:00:51;;;;;;;7.57;3.65;;;;;;;-3.66;61.64;99200.69;4769720;29;20140;-68
2022/01/19 12:03:22;;;;;;;7.38;4.00;;;;;;;-3.62;62.87;99200.63;4783139;29;20048;-69
2022/01/19 12:05:52;;;;;;;8.73;4.50;;;;;;;-3.73;62.64;99195.63;4787807;29;20131;-69
2022/01/19 12:08:30;;;;;;;5.63;3.25;;;;;;;-3.68;64.05;99192.03;4787499;29;20097;-70
2022/01/19 12:11:01;;;;;;;8.43;3.97;;;;;;;-3.76;64.76;99185.28;4788986;29;20053;-69
2022/01/19 12:14:18;;;;;;;7.47;3.58;;;;;;;-4.02;63.72;99191.88;4773539;29;20458;-70
2022/01/19 12:19:07;;;;;;;8.80;4.28;;;;;;;-4.11;62.42;99192.06;4789896;29;20057;-69
2022/01/19 12:21:34;;;;;;;8.90;3.63;;;;;;;-4.01;63.56;99177.13;4790515;29;20074;-71
2022/01/19 12:24:32;;;;;;;6.80;3.75;;;;;;;-4.06;61.01;99190.22;4789405;29;20165;-69
2022/01/19 12:27:16;;;;;;;10.50;3.25;;;;;;;-3.94;63.34;99175.22;4773716;29;20505;-69
2022/01/19 12:29:51;;;;;;;8.90;3.90;;;;;;;-4.08;60.56;99181.59;4772913;29;20050;-69
2022/01/19 12:32:17;;;;;;;4.45;2.38;;;;;;;-4.09;62.81;99166.88;4774044;29;20054;-69
2022/01/19 12:34:46;;;;;;;5.82;2.97;;;;;;;-4.13;63.22;99167.81;4789129;29;20046;-69
2022/01/19 12:37:34;;;;;;;8.55;2.95;;;;;;;-4.24;62.04;99164.56;4757972;29;20049;-68
2022/01/19 12:40:02;;;;;;;5.43;2.72;;;;;;;-4.21;62.59;99169.72;4789476;29;20053;-69
2022/01/19 12:42:56;;;;;;;6.05;3.17;;;;;;;-4.18;63.19;99169.66;4789708;29;20532;-69
2022/01/19 12:45:30;;;;;;;5.00;3.17;;;;;;;-4.27;63.75;99159.41;4789381;29;20572;-68
2022/01/19 12:48:06;;;;;;;4.57;2.72;;;;;;;-4.26;63.27;99163.72;4789679;29;20467;-70
2022/01/19 12:50:36;;;;;;;4.40;2.83;;;;;;;-4.25;64.74;99170.66;4789883;29;20094;-69
2022/01/19 12:53:09;;;;;;;3.88;2.55;;;;;;;-4.34;64.23;99165.63;4789529;29;20050;-68
2022/01/19 12:55:47;;;;;;;8.07;3.20;;;;;;;-4.36;64.52;99157.00;4773064;29;20095;-70
2022/01/19 12:58:35;;;;;;;5.60;2.85;;;;;;;-4.20;67.26;99145.41;4772831;29;20054;-69
2022/01/19 13:01:04;;;;;;;5.95;3.72;;;;;;;-4.52;64.96;99155.59;4773711;29;20210;-69
2022/01/19 13:03:34;;;;;;;15.18;4.18;;;;;;;-4.67;64.06;99142.84;4789363;29;20046;-70
2022/01/19 13:06:05;;;;;;;4.18;3.05;;;;;;;-4.66;65.25;99142.84;4774106;29;20054;-70
2022/01/19 13:09:06;;;;;;;6.10;3.80;;;;;;;-4.78;64.73;99143.91;4789692;29;20136;-69
2022/01/19 13:11:38;;;;;;;6.18;3.50;;;;;;;-4.72;64.67;99142.06;4789081;29;20058;-69
2022/01/19 13:14:07;;;;;;;7.15;3.45;;;;;;;-4.65;65.66;99135.88;4789638;29;20600;-70
2022/01/19 13:16:36;;;;;;;5.75;3.28;;;;;;;-4.62;66.92;99123.66;4751165;30;20154;-69
2022/01/19 13:19:04;;;;;;;9.65;4.30;;;;;;;-4.65;66.27;99141.09;4751187;30;20066;-69
2022/01/19 13:21:30;;;;;;;5.38;3.15;;;;;;;-4.76;65.97;99126.53;4735808;30;20109;-69
2022/01/19 13:24:09;;;;;;;7.20;3.47;;;;;;;-4.79;65.64;99144.78;4750989;30;20109;-69
2022/01/19 13:26:48;;;;;;;6.47;3.72;;;;;;;-4.74;67.82;99154.25;4735864;30;20055;-69
2022/01/19 13:29:26;;;;;;;6.22;3.58;;;;;;;-5.00;66.21;99150.38;4751265;30;20055;-68
2022/01/19 13:32:04;;;;;;;9.23;2.55;;;;;;;-4.91;67.82;99142.41;4736132;30;20594;-69
2022/01/19 13:34:36;;;;;;;6.10;3.22;;;;;;;-4.99;65.90;99143.44;4751384;30;20067;-70
2022/01/19 13:37:03;;;;;;;14.57;6.20;;;;;;;-5.04;65.75;99158.22;4736308;30;20058;-69
2022/01/19 13:39:32;;;;;;;2.72;2.00;;;;;;;-4.91;68.40;99152.81;4736337;30;20047;-70
2022/01/19 13:41:59;;;;;;;7.10;3.28;;;;;;;-4.92;68.67;99147.63;4751223;30;20491;-69
2022/01/19 13:44:31;;;;;;;9.45;4.43;;;;;;;-5.20;66.26;99142.06;4736376;30;20130;-70
2022/01/19 13:47:16;;;;;;;6.80;3.72;;;;;;;-5.15;67.21;99132.44;4760960;29;20066;-70
2022/01/19 13:49:51;;;;;;;;;;;;;;;-5.29;65.58;99129.19;4773664;29;20042;-69
2022/01/19 13:52:20;;;;;;;5.68;3.38;;;;;;;-5.25;68.20;99131.72;4753386;29;20012;-68
2022/01/19 13:54:46;;;;;;;5.32;3.15;;;;;;;-5.33;67.43;99130.13;4769324;29;20066;-69
2022/01/19 13:57:10;;;;;;;6.07;3.67;;;;;;;-5.43;66.84;99126.84;4771591;29;20054;-70
2022/01/19 13:59:36;;;;;;;8.88;4.03;;;;;;;-5.43;66.90;99120.78;4771035;29;20115;-69
2022/01/19 14:02:13;;;;;;;6.15;3.08;;;;;;;-5.35;67.64;99131.91;4769786;29;20070;-70
2022/01/19 14:04:38;;;;;;;7.90;3.63;;;;;;;-5.40;67.98;99118.09;4769005;29;20062;-69
2022/01/19 14:07:10;;;;;;;5.53;3.47;;;;;;;-5.33;68.36;99127.53;4768499;29;20061;-69
2022/01/19 14:09:35;;;;;;;7.40;4.25;;;;;;;-5.33;68.37;99123.22;4753704;29;20054;-69
2022/01/19 14:12:02;;;;;;;10.00;4.50;;;;;;;-5.46;68.03;99124.28;4768586;29;20108;-69
2022/01/19 14:14:35;;;;;;;8.38;4.97;;;;;;;-5.42;68.33;99125.09;4753554;29;20546;-70
2022/01/19 14:17:02;;;;;;;9.55;4.85;;;;;;;-5.42;68.65;99123.34;4768543;29;20061;-69
2022/01/19 14:19:41;;;;;;;7.53;3.92;;;;;;;-5.38;68.45;99131.94;4768603;29;20082;-69
2022/01/19 14:22:21;;;;;;;12.80;5.18;;;;;;;-5.34;69.09;99121.50;4768665;29;20046;-69
2022/01/19 14:24:53;;;;;;;12.07;4.80;;;;;;;-5.25;69.92;99120.47;4772148;29;20058;-70
2022/01/19 14:27:24;;;;;;;9.40;4.75;;;;;;;-5.31;68.90;99105.84;4788793;29;20057;-70
2022/01/19 14:29:57;;;;;;;11.57;6.05;;;;;;;-5.41;68.37;99113.78;4771736;29;20157;-69
2022/01/19 14:32:45;;;;;;;8.90;4.57;;;;;;;-5.30;68.65;99120.53;4788341;29;20081;-70
2022/01/19 14:35:35;;;;;;;10.82;5.55;;;;;;;-5.34;69.50;99111.09;4788072;29;20046;-70
2022/01/19 14:38:25;;;;;;;8.85;4.55;;;;;;;-5.38;69.28;99106.81;4788696;29;20042;-69
2022/01/19 14:40:58;;;;;;;11.70;5.32;;;;;;;-5.43;69.35;99098.25;4772041;29;20056;-69
2022/01/19 14:43:38;;;;;;;8.93;3.75;;;;;;;-5.41;70.64;99087.81;4771856;29;20359;-69
2022/01/19 14:46:09;;;;;;;3.95;2.58;;;;;;;-5.36;71.91;99080.81;4788475;29;20054;-69
2022/01/19 14:48:38;;;;;;;12.55;4.75;;;;;;;-5.51;71.62;99082.78;4788163;29;20061;-69
2022/01/19 14:51:25;;;;;;;7.50;5.32;;;;;;;-5.52;72.38;99086.25;4788227;29;20042;-70
2022/01/19 14:54:05;;;;;;;12.57;6.15;;;;;;;-5.69;71.22;99088.28;4787919;29;20046;-69
2022/01/19 14:56:31;;;;;;;8.75;4.43;;;;;;;-5.82;70.96;99083.28;4787807;29;20536;-71
2022/01/19 14:59:06;;;;;;;9.15;5.13;;;;;;;-5.80;70.28;99099.69;4771382;29;20050;-68
2022/01/19 15:01:33;;;;;;;7.60;4.10;;;;;;;-5.68;71.39;99097.78;4756081;29;20076;-70
2022/01/19 15:03:58;;;;;;;8.13;4.22;;;;;;;-5.71;70.38;99094.38;4788361;29;20129;-69
2022/01/19 15:06:23;;;;;;;10.80;4.18;;;;;;;-5.69;70.03;99095.22;4756243;29;20050;-74
2022/01/19 15:08:48;;;;;;;7.13;3.83;;;;;;;-5.71;70.87;99092.63;4771055;29;20057;-72
2022/01/19 15:11:15;;;;;;;7.30;4.38;;;;;;;-5.62;70.87;99091.63;4787700;29;20046;-69
2022/01/19 15:13:43;;;;;;;16.50;8.65;;;;;;;-5.58;71.24;99094.16;4787507;29;20512;-72
2022/01/19 15:16:09;;;;;;;16.23;10.35;;;;;;;-5.57;71.70;99088.09;4771093;29;20544;-73
2022/01/19 15:18:36;;;;;;;10.63;6.10;;;;;;;-5.57;71.38;99093.28;4787941;29;20054;-72
2022/01/19 15:21:02;;;;;;;8.52;4.78;;;;;;;-5.60;70.33;99102.84;4771192;29;20042;-75
2022/01/19 15:23:27;;;;;;;5.97;3.63;;;;;;;-5.51;72.32;99106.16;4771109;29;20042;-73
2022/01/19 15:25:52;;;;;;;6.40;3.72;;;;;;;-5.59;72.00;99102.84;4787827;29;20114;-73
2022/01/19 15:28:18;;;;;;;11.20;3.28;;;;;;;-5.69;72.49;99083.09;4787739;29;20058;-73
2022/01/19 15:30:48;;;;;;;9.00;4.88;;;;;;;-5.83;72.51;99077.22;4771394;29;20050;-73
2022/01/19 15:33:14;;;;;;;9.98;4.85;;;;;;;-5.90;73.08;99081.72;4771757;29;20073;-75
2022/01/19 15:35:39;;;;;;;6.40;4.38;;;;;;;-5.86;74.17;99069.47;4771300;29;20051;-74
2022/01/19 15:38:10;;;;;;;7.30;4.13;;;;;;;-6.07;73.61;99075.88;4771378;29;20494;-74
2022/01/19 15:40:39;;;;;;;10.80;4.97;;;;;;;-6.05;73.89;99073.28;4756715;29;20046;-77
2022/01/19 15:43:07;;;;;;;8.35;3.88;;;;;;;-5.93;74.57;99075.69;4788159;29;20042;-72
2022/01/19 15:45:36;;;;;;;6.65;3.80;;;;;;;-5.91;74.64;99080.00;4790956;29;20053;-75
2022/01/19 15:48:01;;;;;;;5.60;3.38;;;;;;;-5.87;75.00;99073.00;4792750;29;20054;-74
2022/01/19 15:50:27;;;;;;;10.15;4.18;;;;;;;-5.97;74.81;99064.50;4775570;29;20046;-74
2022/01/19 15:52:54;;;;;;;6.45;3.55;;;;;;;-5.91;75.26;99072.19;4791525;29;20054;-74
2022/01/19 15:55:21;;;;;;;5.03;2.72;;;;;;;-5.93;75.17;99067.91;4745285;29;20475;-72
2022/01/19 15:57:46;;;;;;;6.57;3.88;;;;;;;-6.00;75.30;99059.38;4791302;29;20054;-76
2022/01/19 16:00:16;;;;;;;10.57;4.85;;;;;;;-5.86;75.63;99064.28;4790891;29;20058;-75
2022/01/19 16:02:41;;;;;;;9.10;5.03;;;;;;;-5.99;74.90;99068.00;4790168;29;20148;-74
2022/01/19 16:05:07;;;;;;;7.10;4.43;;;;;;;-5.94;74.87;99058.41;4774309;29;20050;-74
2022/01/19 16:07:32;;;;;;;9.15;4.32;;;;;;;-6.02;74.69;99062.84;4790284;29;20050;-74
2022/01/19 16:09:58;;;;;;;7.57;4.18;;;;;;;-6.01;74.81;99062.84;4790374;29;20110;-74
2022/01/19 16:12:25;;;;;;;8.57;4.20;;;;;;;-5.94;74.77;99055.81;4773914;29;20053;-74
2022/01/19 16:14:51;;;;;;;9.23;4.85;;;;;;;-5.95;74.54;99046.31;4773973;29;20409;-74
2022/01/19 16:17:19;;;;;;;6.30;3.47;;;;;;;-5.92;74.57;99054.06;4790045;29;20100;-76
2022/01/19 16:19:46;;;;;;;8.45;4.95;;;;;;;-5.90;74.57;99042.78;4790287;29;20494;-74
2022/01/19 16:26:06;;;;;;;6.93;4.00;;;;;;;-5.85;74.48;99048.69;4774077;29;20544;-74
2022/01/19 16:27:43;;;;;;;5.50;3.50;;;;;;;-5.82;75.08;99040.03;4758668;29;20157;-75
2022/01/19 16:30:08;;;;;;;8.50;4.30;;;;;;;-5.84;75.11;99041.78;4766364;29;20148;-75
2022/01/19 16:32:33;;;;;;;9.95;4.60;;;;;;;-5.94;74.69;99035.03;4738569;30;20062;-73
2022/01/19 16:34:58;;;;;;;7.38;4.65;;;;;;;-5.89;74.77;99035.84;4753233;30;21203;-72
2022/01/19 16:37:23;;;;;;;7.15;3.97;;;;;;;-5.82;75.76;99029.63;4723359;30;20423;-69
2022/01/19 16:39:47;;;;;;;13.63;4.60;;;;;;;-5.87;75.12;99027.09;4754385;30;20445;-72
2022/01/19 16:42:12;;;;;;;10.18;4.63;;;;;;;-5.77;75.35;99022.66;4738584;30;20051;-73
2022/01/19 16:44:37;;;;;;;7.45;4.18;;;;;;;-5.83;74.79;99024.47;4754791;30;20376;-74
2022/01/19 16:47:02;;;;;;;8.55;4.60;;;;;;;-5.96;74.64;99026.44;4739547;30;20055;-73
2022/01/19 16:49:31;;;;;;;7.35;4.45;;;;;;;-5.89;75.28;99008.16;4755005;30;20530;-71
2022/01/19 16:51:58;;;;;;;7.80;4.75;;;;;;;-5.77;75.74;99006.22;4724220;30;20515;-75
2022/01/19 16:54:23;;;;;;;7.95;4.70;;;;;;;-5.75;75.45;99002.69;4738586;30;20483;-73
2022/01/19 16:56:48;;;;;;;10.25;3.75;;;;;;;-5.77;75.56;98998.44;4760452;29;20039;-75
2022/01/19 16:59:13;;;;;;;9.23;4.82;;;;;;;-5.67;75.80;98987.88;4759665;30;20047;-73
2022/01/19 17:01:38;;;;;;;8.50;4.43;;;;;;;-5.83;75.41;98983.78;4761731;30;20039;-73
2022/01/19 17:04:04;;;;;;;10.98;5.72;;;;;;;-5.83;75.95;98976.00;4754415;30;20050;-74
2022/01/19 17:06:29;;;;;;;7.95;4.13;;;;;;;-5.73;76.18;98969.78;4755148;30;20047;-75
2022/01/19 17:08:56;;;;;;;13.10;5.78;;;;;;;-5.79;75.55;98982.03;4753386;30;20039;-77
2022/01/19 17:11:22;;;;;;;10.18;5.40;;;;;;;-5.70;76.08;98977.53;4755181;30;20051;-78
2022/01/19 17:14:01;;;;;;;12.30;4.72;;;;;;;-5.62;76.33;98975.63;4728009;30;20391;-78
2022/01/19 17:16:41;;;;;;;8.68;5.03;;;;;;;-5.60;75.91;98973.88;4758339;29;20138;-78
2022/01/19 17:19:09;;;;;;;12.63;6.18;;;;;;;-5.80;75.86;98968.19;4724424;30;20051;-75
2022/01/19 17:21:34;;;;;;;7.45;4.38;;;;;;;-5.57;76.31;98972.97;4754397;30;20051;-74
2022/01/19 17:23:59;;;;;;;7.57;3.78;;;;;;;-5.43;76.72;98959.75;4755602;30;20062;-78
2022/01/19 17:26:24;;;;;;;6.97;4.35;;;;;;;-5.48;75.94;98952.03;4755968;29;20054;-74
2022/01/19 17:28:49;;;;;;;6.63;3.83;;;;;;;-5.46;75.85;98962.41;4755583;30;20047;-74
2022/01/19 17:31:15;;;;;;;13.07;5.63;;;;;;;-5.49;76.08;98939.94;4780789;29;20111;-78
2022/01/19 17:33:41;;;;;;;8.40;4.35;;;;;;;-5.38;76.38;98940.59;4761152;29;20092;-75
2022/01/19 17:36:07;;;;;;;10.20;4.80;;;;;;;-5.39;75.92;98938.00;4791317;29;20054;-74
2022/01/19 17:38:35;;;;;;;6.15;3.67;;;;;;;-5.31;76.81;98936.16;4793340;29;20069;-75
2022/01/19 17:41:00;;;;;;;8.27;3.70;;;;;;;-5.43;76.14;98939.84;4794808;29;20046;-76
2022/01/19 17:43:26;;;;;;;8.90;4.57;;;;;;;-5.44;76.23;98947.66;4779184;29;20075;-76
2022/01/19 17:46:01;;;;;;;11.43;5.45;;;;;;;-5.41;76.38;98957.97;4779978;29;20525;-75
2022/01/19 17:53:58;;;;;;;6.47;4.20;;;;;;;-5.56;75.88;98944.41;4789743;29;20447;-72
2022/01/19 17:56:23;;;;;;;7.35;5.20;;;;;;;-5.65;75.45;98938.50;4774805;29;20126;-73
2022/01/19 17:58:50;;;;;;;8.38;4.60;;;;;;;-5.54;76.01;98945.22;4792226;29;20054;-73
2022/01/19 18:01:19;;;;;;;10.25;4.93;;;;;;;-5.50;76.04;98946.88;4791273;29;20078;-78
2022/01/19 18:03:44;;;;;;;8.13;5.03;;;;;;;-5.50;76.39;98946.00;4791143;29;20069;-75
2022/01/19 18:06:13;;;;;;;8.48;4.50;;;;;;;-5.57;75.82;98947.00;4775049;29;20460;-74
2022/01/19 18:08:41;;;;;;;7.03;4.47;;;;;;;-5.61;76.00;98934.97;4792251;29;20050;-73
2022/01/19 18:11:10;;;;;;;8.40;4.90;;;;;;;-5.72;75.94;98947.28;4776731;29;20050;-74
2022/01/19 18:13:35;;;;;;;7.10;4.60;;;;;;;-5.61;76.64;98969.56;4782215;29;20061;-72
2022/01/19 18:16:01;;;;;;;7.55;4.43;;;;;;;-5.52;76.91;98964.22;4720514;30;20053;-75
2022/01/19 18:18:28;;;;;;;11.45;5.70;;;;;;;-5.55;76.51;98963.44;4743247;30;20099;-70
2022/01/19 18:20:54;;;;;;;11.43;5.00;;;;;;;-5.65;76.87;98959.28;4738977;30;20069;-70
2022/01/19 18:23:19;;;;;;;9.60;5.68;;;;;;;-5.64;76.15;98946.25;4717927;30;20048;-71
2022/01/19 18:25:45;;;;;;;9.30;5.05;;;;;;;-5.55;76.60;98945.25;4718725;30;20142;-70
2022/01/19 18:28:11;;;;;;;13.05;6.53;;;;;;;-5.61;76.54;98930.63;4733501;30;20075;-69
2022/01/19 18:30:38;;;;;;;7.63;5.30;;;;;;;-5.61;76.58;98946.19;4721250;30;20063;-71
2022/01/19 18:33:04;;;;;;;8.50;5.28;;;;;;;-5.57;76.50;98937.47;4745572;30;20661;-70
2022/01/19 18:35:30;;;;;;;11.50;5.35;;;;;;;-5.53;76.58;98925.31;4733525;30;20059;-70
2022/01/19 18:37:57;;;;;;;10.15;4.72;;;;;;;-5.49;76.49;98922.59;4722211;30;20452;-69
2022/01/19 18:40:49;;;;;;;11.45;5.72;;;;;;;-5.29;77.26;98908.38;4725810;30;20051;-69
2022/01/19 18:43:18;;;;;;;7.55;4.88;;;;;;;-5.37;77.48;98902.47;4749104;30;20042;-70
2022/01/19 18:45:45;;;;;;;10.20;4.90;;;;;;;-5.49;76.81;98894.03;4750753;30;20134;-70
2022/01/19 18:48:12;;;;;;;7.95;4.80;;;;;;;-5.52;76.91;98881.09;4735885;30;20051;-71
2022/01/19 18:50:38;;;;;;;8.50;4.68;;;;;;;-5.59;76.87;98887.31;4751324;30;20059;-72
2022/01/19 18:53:05;;;;;;;9.32;5.35;;;;;;;-5.57;77.12;98885.56;4758320;29;20448;-71
2022/01/19 18:55:35;;;;;;;4.63;3.22;;;;;;;-5.54;77.33;98890.69;4771434;29;20050;-72
2022/01/19 18:58:01;;;;;;;9.77;4.68;;;;;;;-5.44;77.27;98890.50;4770383;29;20494;-73
2022/01/19 19:00:26;;;;;;;6.25;3.65;;;;;;;-5.38;77.48;98893.84;4771983;29;20058;-74
2022/01/19 19:02:53;;;;;;;6.20;3.70;;;;;;;-5.30;78.08;98889.34;4771368;29;20103;-71
2022/01/19 19:05:20;;;;;;;8.40;5.05;;;;;;;-5.38;77.67;98882.59;4771285;29;20054;-72
2022/01/19 19:07:49;;;;;;;7.13;4.50;;;;;;;-5.32;78.15;98882.47;4759621;29;20046;-71
2022/01/19 19:12:46;;;;;;;4.63;2.80;;;;;;;-5.26;78.31;98866.75;4781004;29;20472;-71
2022/01/19 19:15:16;;;;;;;12.32;4.55;;;;;;;-5.37;78.01;98873.91;4781808;29;20049;-72
2022/01/19 19:17:41;;;;;;;6.68;4.07;;;;;;;-5.34;77.79;98876.47;4782956;29;20077;-72
2022/01/19 19:20:08;;;;;;;8.63;4.35;;;;;;;-5.31;77.95;98866.00;4742176;30;20092;-72
2022/01/19 19:25:51;;;;;;;10.88;5.63;;;;;;;-5.41;77.26;98849.72;4753865;30;20059;-71
2022/01/19 19:28:18;;;;;;;9.00;4.93;;;;;;;-5.43;77.43;98858.47;4754120;30;20066;-70
2022/01/19 19:30:49;;;;;;;8.15;4.63;;;;;;;-5.46;77.96;98851.59;4758779;29;20059;-76
2022/01/19 19:33:17;;;;;;;7.72;3.95;;;;;;;-5.39;77.52;98860.94;4718526;30;20112;-72
2022/01/19 19:35:46;;;;;;;12.57;5.45;;;;;;;-5.43;77.35;98871.44;4734039;30;20048;-70
2022/01/19 19:38:12;;;;;;;9.93;4.95;;;;;;;-5.35;77.62;98865.22;4718267;30;20567;-70
2022/01/19 19:40:40;;;;;;;8.48;5.10;;;;;;;-5.39;77.52;98855.75;4732662;30;20064;-70
2022/01/19 19:43:08;;;;;;;12.90;6.47;;;;;;;-5.43;77.54;98845.47;4733788;30;20048;-70